Time;durP1;ratioP1;P1;durP2;ratioP2;P2;SDS_P1;SDS_P2;PMS_P1;PMS_P2;Temp;Humidity;BMP_temperature;BMP_pressure;BME280_temperature;BME280_humidity;BME280_pressure;Samples;Min_cycle;Max_cycle;Signal;HPM_P1;HPM_P2
2021/08/11 00:01:46;;;;;;;12.25;7.65;;;14.30;99.90;;;;;;5093180;28;20032;-72
2021/08/11 00:04:12;;;;;;;11.80;8.55;;;14.30;99.90;;;;;;5093314;28;20115;-72
2021/08/11 00:06:38;;;;;;;11.23;8.20;;;14.30;99.90;;;;;;5093445;28;20119;-72
2021/08/11 00:09:04;;;;;;;11.20;8.00;;;14.30;99.90;;;;;;5093108;28;20040;-72
2021/08/11 00:11:31;;;;;;;12.77;7.25;;;14.20;99.90;;;;;;5093247;28;20040;-72
2021/08/11 00:13:57;;;;;;;11.55;7.45;;;14.20;99.90;;;;;;5093196;28;20043;-72
2021/08/11 00:16:23;;;;;;;10.48;6.93;;;14.20;99.90;;;;;;5093217;28;20108;-72
2021/08/11 00:18:49;;;;;;;10.20;7.72;;;14.20;99.90;;;;;;5092675;28;20452;-72
2021/08/11 00:21:15;;;;;;;12.05;7.53;;;14.20;99.90;;;;;;5093157;28;20119;-72
2021/08/11 00:23:41;;;;;;;11.57;7.95;;;14.10;99.90;;;;;;5093609;28;20040;-72
2021/08/11 00:26:07;;;;;;;8.27;7.05;;;14.10;99.90;;;;;;5097382;28;20079;-72
2021/08/11 00:28:34;;;;;;;10.32;7.28;;;14.10;99.90;;;;;;5096840;28;20036;-72
2021/08/11 00:30:59;;;;;;;10.88;7.63;;;14.10;99.90;;;;;;5096827;28;20054;-72
2021/08/11 00:33:25;;;;;;;8.85;6.82;;;14.10;99.90;;;;;;5096801;28;20086;-72
2021/08/11 00:35:51;;;;;;;8.88;7.03;;;14.10;99.90;;;;;;5095608;28;20039;-72
2021/08/11 00:38:17;;;;;;;8.38;6.63;;;14.10;99.90;;;;;;5095770;28;20119;-72
2021/08/11 00:40:43;;;;;;;9.82;7.50;;;14.10;99.90;;;;;;5096425;28;20115;-72
2021/08/11 00:43:10;;;;;;;9.70;7.13;;;14.10;99.90;;;;;;5096672;28;20039;-72
2021/08/11 00:45:37;;;;;;;10.15;7.63;;;14.10;99.90;;;;;;5096790;28;20036;-72
2021/08/11 00:48:03;;;;;;;9.88;7.95;;;14.10;99.90;;;;;;5096978;28;20494;-72
2021/08/11 00:50:30;;;;;;;11.48;7.80;;;14.10;99.90;;;;;;5096239;28;20040;-72
2021/08/11 00:52:56;;;;;;;14.27;7.47;;;14.10;99.90;;;;;;5097235;28;20051;-72
2021/08/11 00:55:23;;;;;;;12.50;7.88;;;14.10;99.90;;;;;;5096649;28;20036;-72
2021/08/11 00:57:51;;;;;;;13.43;7.88;;;14.10;99.90;;;;;;5096366;28;20036;-72
2021/08/11 01:00:18;;;;;;;12.23;9.07;;;14.00;99.90;;;;;;5096301;28;20052;-72
2021/08/11 01:02:45;;;;;;;14.43;10.18;;;14.00;99.90;;;;;;5096220;28;20036;-72
2021/08/11 01:05:13;;;;;;;17.88;11.02;;;14.00;99.90;;;;;;5096594;28;20032;-72
2021/08/11 01:07:39;;;;;;;16.05;10.00;;;14.00;99.90;;;;;;5096275;28;20044;-72
2021/08/11 01:10:06;;;;;;;13.00;10.20;;;14.00;99.90;;;;;;5095942;28;20450;-72
2021/08/11 01:12:33;;;;;;;13.88;9.75;;;14.10;99.90;;;;;;5096344;28;20036;-72
2021/08/11 01:15:01;;;;;;;16.42;11.05;;;14.10;99.90;;;;;;5096002;28;20043;-72
2021/08/11 01:17:28;;;;;;;14.30;10.60;;;14.10;99.90;;;;;;5096015;28;20404;-72
2021/08/11 01:19:58;;;;;;;19.15;10.82;;;14.10;99.90;;;;;;5095840;28;20040;-72
2021/08/11 01:22:32;;;;;;;14.68;10.00;;;14.00;99.90;;;;;;5095919;28;20048;-72
2021/08/11 01:25:38;;;;;;;13.07;10.00;;;14.10;99.90;;;;;;5096118;28;20385;-72
2021/08/11 01:28:36;;;;;;;18.67;11.00;;;14.10;99.90;;;;;;5095691;28;20052;-72
2021/08/11 01:31:08;;;;;;;13.57;10.05;;;14.10;99.90;;;;;;5095800;28;20051;-72
2021/08/11 01:33:45;;;;;;;18.55;10.88;;;14.00;99.90;;;;;;5095742;28;20107;-72
2021/08/11 01:36:39;;;;;;;13.75;10.38;;;14.00;99.90;;;;;;5094935;28;20036;-72
2021/08/11 01:39:09;;;;;;;18.88;10.90;;;14.00;99.90;;;;;;5095665;28;20047;-72
2021/08/11 01:41:40;;;;;;;15.23;10.48;;;14.00;99.90;;;;;;5095630;28;20081;-72
2021/08/11 01:44:07;;;;;;;16.88;10.07;;;14.00;99.90;;;;;;5095688;28;20072;-72
2021/08/11 01:46:41;;;;;;;14.63;10.65;;;14.00;99.90;;;;;;5096044;28;20040;-72
2021/08/11 01:49:09;;;;;;;17.25;10.45;;;14.00;99.90;;;;;;5095149;28;20059;-72
2021/08/11 01:51:38;;;;;;;14.80;10.75;;;13.90;99.90;;;;;;5095527;28;20050;-72
2021/08/11 01:54:06;;;;;;;15.00;10.82;;;13.90;99.90;;;;;;5095420;28;20087;-72
2021/08/11 01:56:34;;;;;;;16.05;10.57;;;13.90;99.90;;;;;;5095189;28;20043;-72
2021/08/11 01:59:01;;;;;;;12.57;9.70;;;13.90;99.90;;;;;;5094955;28;20105;-72
2021/08/11 02:01:27;;;;;;;12.93;9.73;;;13.80;99.90;;;;;;5095047;28;20036;-72
2021/08/11 02:03:54;;;;;;;15.05;10.55;;;13.80;99.90;;;;;;5095287;28;20044;-72
2021/08/11 02:06:20;;;;;;;16.60;10.98;;;13.80;99.90;;;;;;5095077;28;20068;-72
2021/08/11 02:08:46;;;;;;;12.85;9.68;;;13.90;99.90;;;;;;5094709;28;20036;-72
2021/08/11 02:11:13;;;;;;;15.60;11.07;;;13.80;99.90;;;;;;5095047;28;20050;-72
2021/08/11 02:13:39;;;;;;;11.57;9.52;;;13.80;99.90;;;;;;5095006;28;20036;-72
2021/08/11 02:16:05;;;;;;;10.75;9.25;;;13.80;99.90;;;;;;5095229;28;20032;-72
2021/08/11 02:18:31;;;;;;;13.50;9.30;;;13.80;99.90;;;;;;5094559;28;20113;-70
2021/08/11 02:20:57;;;;;;;13.68;10.00;;;13.80;99.90;;;;;;5094962;28;20078;-71
2021/08/11 02:23:23;;;;;;;13.07;9.85;;;13.80;99.90;;;;;;5094234;28;20553;-71
2021/08/11 02:26:02;;;;;;;15.95;10.50;;;13.80;99.90;;;;;;5094780;28;20036;-71
2021/08/11 02:28:52;;;;;;;13.88;9.50;;;13.80;99.90;;;;;;5094312;28;20446;-72
2021/08/11 02:32:03;;;;;;;14.77;9.98;;;13.70;99.90;;;;;;5094478;28;20040;-71
2021/08/11 02:34:36;;;;;;;15.05;11.13;;;13.70;99.90;;;;;;5093546;28;20056;-71
2021/08/11 02:37:11;;;;;;;14.95;12.02;;;13.70;99.90;;;;;;5094843;28;20063;-71
2021/08/11 02:39:53;;;;;;;14.63;10.48;;;13.60;99.90;;;;;;5094365;28;20385;-71
2021/08/11 02:42:35;;;;;;;15.95;11.15;;;13.70;99.90;;;;;;5094614;28;20082;-71
2021/08/11 02:45:02;;;;;;;17.55;11.18;;;13.60;99.90;;;;;;5094570;28;20074;-71
2021/08/11 02:47:32;;;;;;;18.00;10.55;;;13.60;99.90;;;;;;5094521;28;20063;-71
2021/08/11 02:50:00;;;;;;;14.82;10.15;;;13.60;99.90;;;;;;5094010;28;20412;-71
2021/08/11 02:52:26;;;;;;;14.15;9.90;;;13.60;99.90;;;;;;5094103;28;20062;-71
2021/08/11 02:54:53;;;;;;;13.30;10.27;;;13.60;99.90;;;;;;5094098;28;20111;-71
2021/08/11 02:57:19;;;;;;;13.73;9.18;;;13.60;99.90;;;;;;5094189;28;20125;-71
2021/08/11 02:59:46;;;;;;;12.43;9.30;;;13.50;99.90;;;;;;5094039;28;20046;-71
2021/08/11 03:02:13;;;;;;;13.25;9.70;;;13.50;99.90;;;;;;5094071;28;20040;-71
2021/08/11 03:04:39;;;;;;;12.55;9.07;;;13.40;99.90;;;;;;5094179;28;20043;-71
2021/08/11 03:07:06;;;;;;;12.45;9.43;;;13.50;99.90;;;;;;5094078;28;20522;-71
2021/08/11 03:09:32;;;;;;;12.82;8.88;;;13.40;99.90;;;;;;5093475;28;20067;-71
2021/08/11 03:11:59;;;;;;;11.30;9.05;;;13.30;99.90;;;;;;5093782;28;20114;-71
2021/08/11 03:14:25;;;;;;;9.60;8.43;;;13.30;99.90;;;;;;5093727;28;20075;-71
2021/08/11 03:16:51;;;;;;;13.02;9.25;;;13.30;99.90;;;;;;5093872;28;20067;-71
2021/08/11 03:19:17;;;;;;;10.60;8.25;;;13.30;99.90;;;;;;5093436;28;20105;-71
2021/08/11 03:21:43;;;;;;;13.35;8.90;;;13.30;99.90;;;;;;5093590;28;20206;-71
2021/08/11 03:24:09;;;;;;;11.98;9.00;;;13.30;99.90;;;;;;5093864;28;20123;-71
2021/08/11 03:26:35;;;;;;;11.82;9.23;;;13.20;99.90;;;;;;5094219;28;20047;-71
2021/08/11 03:29:01;;;;;;;14.77;9.05;;;13.30;99.90;;;;;;5093202;28;20031;-71
2021/08/11 03:31:28;;;;;;;14.10;9.40;;;13.30;99.90;;;;;;5093660;28;20085;-71
2021/08/11 03:33:55;;;;;;;14.13;9.93;;;13.20;99.90;;;;;;5093442;28;20063;-71
2021/08/11 03:36:21;;;;;;;12.00;8.73;;;13.20;99.90;;;;;;5093513;28;20468;-71
2021/08/11 03:38:47;;;;;;;13.80;9.60;;;13.20;99.90;;;;;;5091919;28;20048;-71
2021/08/11 03:41:13;;;;;;;13.10;9.80;;;13.20;99.90;;;;;;5093659;28;20097;-71
2021/08/11 03:43:38;;;;;;;12.90;9.35;;;13.20;99.90;;;;;;5093373;28;20111;-71
2021/08/11 03:46:04;;;;;;;11.48;9.15;;;13.20;99.90;;;;;;5093508;28;20038;-71
2021/08/11 03:48:30;;;;;;;10.90;8.65;;;13.10;99.90;;;;;;5093035;28;20476;-71
2021/08/11 03:50:56;;;;;;;13.10;9.23;;;13.10;99.90;;;;;;5093820;28;20047;-71
2021/08/11 03:53:22;;;;;;;11.30;9.13;;;13.10;99.90;;;;;;5093280;28;20040;-71
2021/08/11 03:55:47;;;;;;;10.70;9.60;;;13.20;99.90;;;;;;5093217;28;20044;-71
2021/08/11 03:58:13;;;;;;;10.60;9.20;;;13.10;99.90;;;;;;5093754;28;20040;-71
2021/08/11 04:00:40;;;;;;;12.45;8.65;;;13.10;99.90;;;;;;5097319;28;20044;-71
2021/08/11 04:03:06;;;;;;;12.82;9.75;;;13.10;99.90;;;;;;5097327;28;20115;-71
2021/08/11 04:05:31;;;;;;;12.23;9.45;;;13.10;99.90;;;;;;5097445;28;20121;-70
2021/08/11 04:07:57;;;;;;;14.23;9.80;;;13.10;99.90;;;;;;5097331;28;20043;-71
2021/08/11 04:10:23;;;;;;;15.98;10.75;;;13.10;99.90;;;;;;5095599;28;20036;-71
2021/08/11 04:12:48;;;;;;;17.17;10.73;;;13.10;99.90;;;;;;5097218;28;20040;-71
2021/08/11 04:15:14;;;;;;;14.57;10.02;;;13.10;99.90;;;;;;5097657;28;20477;-71
2021/08/11 04:17:40;;;;;;;16.48;10.27;;;13.10;99.90;;;;;;5096989;28;20032;-71
2021/08/11 04:20:06;;;;;;;15.45;11.10;;;13.10;99.90;;;;;;5096877;28;20039;-71
2021/08/11 04:22:32;;;;;;;15.75;11.10;;;13.10;99.90;;;;;;5097259;28;20040;-71
2021/08/11 04:24:58;;;;;;;16.98;10.63;;;13.20;99.90;;;;;;5097143;28;20048;-71
2021/08/11 04:27:24;;;;;;;17.52;11.40;;;13.20;99.90;;;;;;5097454;28;20032;-71
2021/08/11 04:29:51;;;;;;;13.77;10.20;;;13.20;99.90;;;;;;5096544;28;20040;-71
2021/08/11 04:32:16;;;;;;;16.65;12.15;;;13.20;99.90;;;;;;5097198;28;20085;-71
2021/08/11 04:34:43;;;;;;;18.65;12.38;;;13.20;99.90;;;;;;5097326;28;20040;-71
2021/08/11 04:37:08;;;;;;;16.63;11.60;;;13.20;99.90;;;;;;5097050;28;20032;-71
2021/08/11 04:39:34;;;;;;;14.88;9.93;;;13.30;99.90;;;;;;5096553;28;20051;-71
2021/08/11 04:42:00;;;;;;;15.20;11.82;;;13.30;99.90;;;;;;5095914;28;20043;-71
2021/08/11 04:44:25;;;;;;;20.10;11.02;;;13.30;99.90;;;;;;5096575;28;20488;-71
2021/08/11 04:46:51;;;;;;;20.60;12.10;;;13.40;99.90;;;;;;5096531;28;20468;-71
2021/08/11 04:49:17;;;;;;;16.27;11.40;;;13.40;99.90;;;;;;5096795;28;20082;-71
2021/08/11 04:51:42;;;;;;;18.25;12.13;;;13.40;99.90;;;;;;5096653;28;20036;-71
2021/08/11 04:54:08;;;;;;;16.40;12.48;;;13.50;99.90;;;;;;5096504;28;20072;-71
2021/08/11 04:56:33;;;;;;;17.48;12.15;;;13.60;99.90;;;;;;5096915;28;20500;-71
2021/08/11 04:59:00;;;;;;;16.98;11.75;;;13.60;99.90;;;;;;5096567;28;20040;-71
2021/08/11 05:01:25;;;;;;;17.48;12.05;;;13.70;99.90;;;;;;5096902;28;20162;-72
2021/08/11 05:03:52;;;;;;;16.17;11.27;;;13.70;99.90;;;;;;5096603;28;20036;-71
2021/08/11 05:06:19;;;;;;;15.60;11.82;;;13.80;99.90;;;;;;5095456;28;20109;-71
2021/08/11 05:08:45;;;;;;;15.18;10.82;;;14.00;99.90;;;;;;5096132;28;20040;-71
2021/08/11 05:11:10;;;;;;;16.17;11.65;;;14.00;99.90;;;;;;5095842;28;20403;-71
2021/08/11 05:13:36;;;;;;;17.02;11.50;;;14.20;99.90;;;;;;5096253;28;20092;-71
2021/08/11 05:16:02;;;;;;;13.93;10.38;;;14.30;99.90;;;;;;5096178;28;20519;-72
2021/08/11 05:18:29;;;;;;;13.68;9.93;;;14.30;99.90;;;;;;5095851;28;20063;-71
2021/08/11 05:20:55;;;;;;;14.60;9.98;;;14.50;99.90;;;;;;5096063;28;20535;-71
2021/08/11 05:23:20;;;;;;;15.27;10.82;;;14.60;99.90;;;;;;5096376;28;20028;-71
2021/08/11 05:25:47;;;;;;;14.95;10.77;;;14.70;99.90;;;;;;5096433;28;20046;-71
2021/08/11 05:28:13;;;;;;;15.82;11.45;;;14.90;99.90;;;;;;5095826;28;20047;-71
2021/08/11 05:30:42;;;;;;;18.25;10.93;;;15.10;99.90;;;;;;5095648;28;20430;-71
2021/08/11 05:33:08;;;;;;;16.65;11.38;;;15.20;99.90;;;;;;5094511;28;20078;-71
2021/08/11 05:35:34;;;;;;;14.77;11.07;;;15.30;99.90;;;;;;5095898;28;20064;-71
2021/08/11 05:38:00;;;;;;;16.20;10.68;;;15.50;99.90;;;;;;5095785;28;20093;-71
2021/08/11 05:40:26;;;;;;;14.88;12.35;;;15.70;99.90;;;;;;5095367;28;20036;-71
2021/08/11 05:42:52;;;;;;;20.13;12.63;;;15.90;99.90;;;;;;5094501;28;20503;-71
2021/08/11 05:45:17;;;;;;;19.58;11.55;;;16.10;99.90;;;;;;5095402;28;20040;-71
2021/08/11 05:47:43;;;;;;;21.30;11.40;;;16.30;99.90;;;;;;5095482;28;20036;-71
2021/08/11 05:50:10;;;;;;;19.33;12.02;;;16.50;99.90;;;;;;5095060;28;20085;-71
2021/08/11 05:52:35;;;;;;;16.95;13.18;;;16.70;99.90;;;;;;5095305;28;20040;-71
2021/08/11 05:55:01;;;;;;;15.65;11.90;;;16.80;99.90;;;;;;5095575;28;20418;-71
2021/08/11 05:57:27;;;;;;;14.68;11.50;;;16.70;99.90;;;;;;5095185;28;20036;-71
2021/08/11 05:59:53;;;;;;;20.20;11.82;;;16.60;99.90;;;;;;5095117;28;20040;-71
2021/08/11 06:02:20;;;;;;;15.27;11.63;;;16.50;99.90;;;;;;5095215;28;20361;-71
2021/08/11 06:04:45;;;;;;;15.10;11.32;;;16.50;99.90;;;;;;5094169;28;20032;-71
2021/08/11 06:07:11;;;;;;;19.33;11.80;;;16.70;99.90;;;;;;5095207;28;20036;-71
2021/08/11 06:09:37;;;;;;;17.40;12.82;;;16.90;99.90;;;;;;5094618;28;20040;-72
2021/08/11 06:12:03;;;;;;;17.10;11.50;;;17.00;99.90;;;;;;5094931;28;20043;-70
2021/08/11 06:14:29;;;;;;;17.75;11.50;;;17.10;99.90;;;;;;5094784;28;20518;-70
2021/08/11 06:16:54;;;;;;;15.43;11.27;;;17.10;99.90;;;;;;5094976;28;20043;-70
2021/08/11 06:19:20;;;;;;;14.80;11.18;;;17.10;99.90;;;;;;5094816;28;20039;-71
2021/08/11 06:21:46;;;;;;;16.33;12.40;;;17.10;99.90;;;;;;5094147;28;20036;-70
2021/08/11 06:24:11;;;;;;;15.30;11.10;;;17.20;99.90;;;;;;5094760;28;20046;-70
2021/08/11 06:26:37;;;;;;;17.90;12.07;;;17.40;99.90;;;;;;5094825;28;20399;-70
2021/08/11 06:29:04;;;;;;;20.85;13.50;;;17.50;99.90;;;;;;5094240;28;20036;-70
2021/08/11 06:31:29;;;;;;;13.52;10.38;;;17.80;99.90;;;;;;5094591;28;20085;-70
2021/08/11 06:33:55;;;;;;;18.00;11.45;;;18.10;99.90;;;;;;5095418;28;20043;-70
2021/08/11 06:36:22;;;;;;;15.27;10.48;;;18.30;99.90;;;;;;5094470;28;20472;-70
2021/08/11 06:38:48;;;;;;;18.20;11.23;;;18.30;99.90;;;;;;5094197;28;20042;-71
2021/08/11 06:41:18;;;;;;;13.68;10.30;;;18.50;99.90;;;;;;5094377;28;20047;-70
2021/08/11 06:43:45;;;;;;;15.75;10.10;;;18.80;99.90;;;;;;5095111;28;20048;-70
2021/08/11 06:46:14;;;;;;;11.57;9.77;;;19.00;99.90;;;;;;5094550;28;20067;-70
2021/08/11 06:48:40;;;;;;;12.35;8.95;;;19.10;99.90;;;;;;5093964;28;20078;-70
2021/08/11 06:51:07;;;;;;;14.73;9.18;;;19.20;99.90;;;;;;5094419;28;20047;-70
2021/08/11 06:53:33;;;;;;;11.68;8.15;;;19.50;99.90;;;;;;5094794;28;20119;-70
2021/08/11 06:55:59;;;;;;;13.10;7.95;;;19.70;99.90;;;;;;5093584;28;20079;-70
2021/08/11 06:58:25;;;;;;;12.85;7.80;;;20.00;99.90;;;;;;5094458;28;20115;-70
2021/08/11 07:00:52;;;;;;;10.18;6.68;;;20.00;99.90;;;;;;5093714;28;20524;-70
2021/08/11 07:03:19;;;;;;;10.95;7.85;;;20.20;99.90;;;;;;5094222;28;20044;-70
2021/08/11 07:05:45;;;;;;;13.05;7.45;;;20.30;99.90;;;;;;5094103;28;20032;-70
2021/08/11 07:08:11;;;;;;;11.75;7.80;;;20.30;99.90;;;;;;5094415;28;20036;-70
2021/08/11 07:10:37;;;;;;;10.95;7.20;;;20.50;99.90;;;;;;5093585;28;20044;-70
2021/08/11 07:13:03;;;;;;;9.70;6.78;;;20.10;99.90;;;;;;5093799;28;20381;-70
2021/08/11 07:15:29;;;;;;;9.55;7.30;;;20.10;99.90;;;;;;5093996;28;20044;-69
2021/08/11 07:17:56;;;;;;;12.05;7.75;;;20.00;99.90;;;;;;5094041;28;20086;-69
2021/08/11 07:20:27;;;;;;;11.90;7.13;;;20.10;99.90;;;;;;5093208;28;20118;-70
2021/08/11 07:22:55;;;;;;;10.20;6.78;;;20.20;99.90;;;;;;5092639;28;20047;-70
2021/08/11 07:25:21;;;;;;;8.68;6.20;;;20.20;99.90;;;;;;5093711;28;20036;-70
2021/08/11 07:27:47;;;;;;;11.02;6.90;;;20.50;99.90;;;;;;5093532;28;20074;-70
2021/08/11 07:30:14;;;;;;;9.93;6.72;;;20.50;99.90;;;;;;5093186;28;20036;-70
2021/08/11 07:32:42;;;;;;;9.98;6.65;;;20.30;99.90;;;;;;5093347;28;20106;-70
2021/08/11 07:35:08;;;;;;;8.52;6.25;;;20.20;99.90;;;;;;5092826;28;20040;-70
2021/08/11 07:37:53;;;;;;;9.52;6.85;;;20.70;99.90;;;;;;5093811;28;20047;-70
2021/08/11 07:40:21;;;;;;;7.93;5.75;;;20.90;99.90;;;;;;5093488;28;20089;-70
2021/08/11 07:42:47;;;;;;;11.52;5.72;;;20.70;99.90;;;;;;5093630;28;20457;-68
2021/08/11 07:45:14;;;;;;;7.78;5.82;;;20.70;99.90;;;;;;5093726;28;20115;-69
2021/08/11 07:47:42;;;;;;;8.27;5.90;;;20.60;99.90;;;;;;5093525;28;20089;-70
2021/08/11 07:50:08;;;;;;;11.50;5.50;;;20.50;99.90;;;;;;5093028;28;20050;-71
2021/08/11 07:52:34;;;;;;;8.98;5.57;;;20.50;99.90;;;;;;5093330;28;20040;-71
2021/08/11 07:55:00;;;;;;;8.27;4.93;;;20.60;99.90;;;;;;5093249;28;20036;-71
2021/08/11 07:57:26;;;;;;;8.05;5.07;;;20.80;99.90;;;;;;5093350;28;20036;-71
2021/08/11 07:59:52;;;;;;;7.20;5.20;;;20.90;99.90;;;;;;5092855;28;20157;-70
2021/08/11 08:02:17;;;;;;;7.28;5.18;;;21.00;99.90;;;;;;5092008;28;20461;-70
2021/08/11 08:04:43;;;;;;;8.50;5.47;;;20.90;99.90;;;;;;5093472;28;20480;-71
2021/08/11 08:07:09;;;;;;;7.13;5.68;;;20.80;99.90;;;;;;5091962;28;20036;-71
2021/08/11 08:09:35;;;;;;;9.15;5.10;;;20.70;99.90;;;;;;5092348;28;20075;-71
2021/08/11 08:12:01;;;;;;;7.82;5.32;;;20.70;99.90;;;;;;5093065;28;20404;-71
2021/08/11 08:14:26;;;;;;;9.35;4.60;;;20.60;99.90;;;;;;5093009;28;20410;-71
2021/08/11 08:16:52;;;;;;;8.75;4.55;;;20.70;99.90;;;;;;5093394;28;20033;-71
2021/08/11 08:19:18;;;;;;;7.50;5.35;;;20.70;99.90;;;;;;5092734;28;20079;-71
2021/08/11 08:21:44;;;;;;;8.27;4.90;;;20.80;99.90;;;;;;5093391;28;20104;-71
2021/08/11 08:24:09;;;;;;;7.75;4.95;;;20.80;99.90;;;;;;5093114;28;20110;-71
2021/08/11 08:26:35;;;;;;;6.50;4.90;;;20.80;99.90;;;;;;5093371;28;20067;-71
2021/08/11 08:29:01;;;;;;;8.40;5.60;;;20.70;99.90;;;;;;5092842;28;20156;-71
2021/08/11 08:31:27;;;;;;;6.45;5.05;;;20.70;99.90;;;;;;5092922;28;20044;-71
2021/08/11 08:33:54;;;;;;;10.88;4.72;;;20.90;99.90;;;;;;5093115;28;20372;-71
2021/08/11 08:36:20;;;;;;;7.28;5.20;;;21.10;99.90;;;;;;5092860;28;20472;-71
2021/08/11 08:38:45;;;;;;;7.38;4.72;;;21.20;99.90;;;;;;5092874;28;20043;-71
2021/08/11 08:41:12;;;;;;;6.93;4.65;;;21.30;99.90;;;;;;5093018;28;20036;-71
2021/08/11 08:43:38;;;;;;;7.63;4.28;;;21.60;99.90;;;;;;5092970;28;20036;-71
2021/08/11 08:46:04;;;;;;;8.48;4.82;;;21.90;99.90;;;;;;5095458;28;20032;-71
2021/08/11 08:48:30;;;;;;;9.15;4.80;;;22.10;99.90;;;;;;5096578;28;20043;-72
2021/08/11 08:50:56;;;;;;;9.40;4.90;;;22.20;99.90;;;;;;5096485;28;20036;-71
2021/08/11 08:53:23;;;;;;;7.40;4.80;;;22.20;99.90;;;;;;5096876;28;20468;-72
2021/08/11 08:55:53;;;;;;;9.00;4.55;;;22.30;99.90;;;;;;5096750;28;20404;-72
2021/08/11 08:58:19;;;;;;;6.57;4.35;;;22.40;99.90;;;;;;5096436;28;20499;-71
2021/08/11 09:00:47;;;;;;;7.25;3.83;;;22.40;99.90;;;;;;5096041;28;20469;-71
2021/08/11 09:03:14;;;;;;;6.28;3.75;;;22.70;99.90;;;;;;5096315;28;20032;-71
2021/08/11 09:05:40;;;;;;;6.80;4.20;;;22.80;99.90;;;;;;5096350;28;20421;-71
2021/08/11 09:08:07;;;;;;;6.80;4.03;;;23.00;99.90;;;;;;5096281;28;20165;-71
2021/08/11 09:10:36;;;;;;;10.10;4.32;;;23.10;99.90;;;;;;5095825;28;20381;-72
2021/08/11 09:13:08;;;;;;;8.48;4.25;;;23.00;99.90;;;;;;5096046;28;20044;-72
2021/08/11 09:15:45;;;;;;;6.15;3.70;;;22.90;99.90;;;;;;5095051;28;20043;-71
2021/08/11 09:18:29;;;;;;;5.85;3.53;;;22.70;99.90;;;;;;5096051;28;20377;-72
2021/08/11 09:21:03;;;;;;;7.75;3.92;;;22.50;99.90;;;;;;5096111;28;20044;-71
2021/08/11 09:23:41;;;;;;;7.18;4.10;;;22.50;99.90;;;;;;5095823;28;20061;-71
2021/08/11 09:26:12;;;;;;;9.43;3.90;;;22.30;99.90;;;;;;5095882;28;20032;-71
2021/08/11 09:28:41;;;;;;;;;;;22.40;99.90;;;;;;5096118;28;20032;-72
2021/08/11 09:31:31;;;;;;;7.95;3.90;;;22.40;99.90;;;;;;5095622;28;19916;-72
2021/08/11 09:33:59;;;;;;;7.93;4.45;;;22.50;99.90;;;;;;5096027;28;20040;-72
2021/08/11 09:36:25;;;;;;;7.25;4.47;;;22.50;99.90;;;;;;5095797;28;20068;-72
2021/08/11 09:39:04;;;;;;;8.23;4.15;;;22.50;99.90;;;;;;5095588;28;20040;-72
2021/08/11 09:41:32;;;;;;;6.72;4.03;;;22.50;99.90;;;;;;5095850;28;20113;-71
2021/08/11 09:44:09;;;;;;;8.45;3.58;;;22.30;99.90;;;;;;5095846;28;20050;-71
2021/08/11 09:46:37;;;;;;;7.05;4.25;;;22.30;99.90;;;;;;5095709;28;20036;-72
2021/08/11 09:49:15;;;;;;;6.88;3.90;;;22.20;99.90;;;;;;5095062;28;20446;-72
2021/08/11 09:52:00;;;;;;;5.32;3.42;;;22.10;99.90;;;;;;5095335;28;20071;-72
2021/08/11 09:54:28;;;;;;;7.95;3.80;;;22.00;99.90;;;;;;5095961;28;20040;-72
2021/08/11 09:56:54;;;;;;;7.95;4.28;;;22.00;99.90;;;;;;5094437;28;20086;-72
2021/08/11 09:59:20;;;;;;;7.03;4.35;;;22.00;99.90;;;;;;5095191;28;20040;-72
2021/08/11 10:01:46;;;;;;;10.45;4.65;;;22.00;99.90;;;;;;5095163;28;20040;-72
2021/08/11 10:04:13;;;;;;;8.15;4.50;;;22.00;99.90;;;;;;5095092;28;20039;-71
2021/08/11 10:06:43;;;;;;;6.47;4.65;;;22.00;99.90;;;;;;5095335;28;20036;-71
2021/08/11 10:09:21;;;;;;;4.88;3.70;;;22.10;99.90;;;;;;5094664;28;20081;-71
2021/08/11 10:11:57;;;;;;;7.22;3.90;;;22.10;99.90;;;;;;5095155;28;20044;-72
2021/08/11 10:14:24;;;;;;;6.80;3.90;;;22.30;99.90;;;;;;5095130;28;20032;-72
2021/08/11 10:16:51;;;;;;;6.75;4.07;;;22.40;99.90;;;;;;5095177;28;20074;-71
2021/08/11 10:19:21;;;;;;;8.10;3.97;;;22.50;99.90;;;;;;5094656;28;20036;-71
2021/08/11 10:21:49;;;;;;;8.95;4.60;;;22.60;99.90;;;;;;5094796;28;20046;-71
2021/08/11 10:24:15;;;;;;;4.85;3.85;;;22.60;99.90;;;;;;5095218;28;20036;-71
2021/08/11 10:26:42;;;;;;;5.88;3.85;;;22.60;99.90;;;;;;5094641;28;20399;-72
2021/08/11 10:29:08;;;;;;;9.10;4.45;;;22.60;99.90;;;;;;5094280;28;20496;-71
2021/08/11 10:31:35;;;;;;;6.93;4.45;;;22.70;99.90;;;;;;5094641;28;20118;-72
2021/08/11 10:34:02;;;;;;;6.25;4.25;;;22.80;99.90;;;;;;5095010;28;20047;-71
2021/08/11 10:36:31;;;;;;;7.35;4.57;;;22.90;99.90;;;;;;5094778;28;20051;-72
2021/08/11 10:38:59;;;;;;;6.95;3.90;;;22.90;99.90;;;;;;5094300;28;20202;-72
2021/08/11 10:41:32;;;;;;;5.57;3.78;;;22.90;99.90;;;;;;5094550;28;20412;-72
2021/08/11 10:43:59;;;;;;;6.90;4.18;;;22.90;99.90;;;;;;5095156;28;20047;-72
2021/08/11 10:46:40;;;;;;;8.90;3.88;;;22.80;99.90;;;;;;5094212;28;20032;-72
2021/08/11 10:49:08;;;;;;;6.47;4.53;;;22.80;99.90;;;;;;5093955;28;20032;-72
2021/08/11 10:51:45;;;;;;;9.07;4.03;;;22.80;99.90;;;;;;5094104;28;20036;-72
2021/08/11 10:54:16;;;;;;;6.90;3.97;;;22.80;99.90;;;;;;5094724;28;20089;-71
2021/08/11 10:56:47;;;;;;;7.07;3.83;;;22.80;99.90;;;;;;5094214;28;20459;-71
2021/08/11 10:59:43;;;;;;;7.15;3.85;;;22.70;99.90;;;;;;5093990;28;20051;-72
2021/08/11 11:02:37;;;;;;;6.38;4.00;;;22.60;99.90;;;;;;5093815;28;20056;-71
2021/08/11 11:05:03;;;;;;;5.93;4.22;;;22.60;99.90;;;;;;5094334;28;20110;-72
2021/08/11 11:07:29;;;;;;;5.35;3.53;;;22.50;99.90;;;;;;5093720;28;20110;-72
2021/08/11 11:10:26;;;;;;;8.15;3.80;;;22.60;99.90;;;;;;5093644;28;20532;-72
2021/08/11 11:12:52;;;;;;;6.75;3.55;;;22.60;99.90;;;;;;5094011;28;20115;-72
2021/08/11 11:15:41;;;;;;;6.13;3.45;;;22.50;99.90;;;;;;5094035;28;20071;-72
2021/08/11 11:18:19;;;;;;;6.70;3.58;;;22.60;99.90;;;;;;5093330;28;20051;-72
2021/08/11 11:20:45;;;;;;;5.10;3.63;;;22.60;99.90;;;;;;5093408;28;20040;-72
2021/08/11 11:23:29;;;;;;;4.75;3.55;;;22.60;99.90;;;;;;5093846;28;20032;-72
2021/08/11 11:25:58;;;;;;;7.18;3.42;;;22.60;99.90;;;;;;5093744;28;20373;-71
2021/08/11 11:28:56;;;;;;;5.93;3.70;;;22.70;99.90;;;;;;5093615;28;20042;-72
2021/08/11 11:31:32;;;;;;;6.45;3.78;;;22.70;99.90;;;;;;5093544;28;20047;-72
2021/08/11 11:34:28;;;;;;;6.97;3.95;;;22.70;99.90;;;;;;5094000;28;20521;-71
2021/08/11 11:36:55;;;;;;;9.00;4.55;;;22.60;99.90;;;;;;5092573;28;20052;-72
2021/08/11 11:39:21;;;;;;;6.75;4.43;;;22.60;99.90;;;;;;5092038;28;20036;-72
2021/08/11 11:42:06;;;;;;;6.32;3.97;;;22.50;99.90;;;;;;5093530;28;20082;-72
2021/08/11 11:44:50;;;;;;;6.82;3.95;;;22.50;99.90;;;;;;5093629;28;20035;-72
2021/08/11 11:47:37;;;;;;;6.18;3.45;;;22.60;99.90;;;;;;5093375;28;20035;-71
2021/08/11 11:50:18;;;;;;;6.25;4.07;;;22.70;99.90;;;;;;5092745;28;20047;-72
2021/08/11 11:52:58;;;;;;;6.18;4.18;;;22.70;99.90;;;;;;5093631;28;20474;-72
2021/08/11 11:55:41;;;;;;;8.13;3.47;;;22.70;99.90;;;;;;5093347;28;20036;-71
2021/08/11 11:58:21;;;;;;;6.35;3.75;;;22.80;99.90;;;;;;5092574;28;20040;-71
2021/08/11 12:01:01;;;;;;;6.38;3.42;;;22.90;99.90;;;;;;5093154;28;20511;-71
2021/08/11 12:03:39;;;;;;;5.32;3.40;;;22.90;99.90;;;;;;5093723;28;20070;-71
2021/08/11 12:06:05;;;;;;;10.32;3.92;;;23.10;99.90;;;;;;5093216;28;20040;-71
2021/08/11 12:08:32;;;;;;;4.93;3.58;;;23.00;99.90;;;;;;5092865;28;20047;-72
2021/08/11 12:11:09;;;;;;;8.63;4.03;;;23.10;99.90;;;;;;5093153;28;20036;-71
2021/08/11 12:13:50;;;;;;;7.43;3.72;;;23.10;99.90;;;;;;5093392;28;20051;-71
2021/08/11 12:16:18;;;;;;;7.40;5.22;;;23.10;99.90;;;;;;5093168;28;20447;-71
2021/08/11 12:18:47;;;;;;;10.02;4.05;;;23.00;99.90;;;;;;5092754;28;20036;-71
2021/08/11 12:21:14;;;;;;;6.38;3.72;;;23.00;99.90;;;;;;5096027;28;20047;-71
2021/08/11 12:23:41;;;;;;;6.45;4.10;;;23.00;99.90;;;;;;5097537;28;20070;-71
2021/08/11 12:26:15;;;;;;;6.82;3.50;;;23.10;99.90;;;;;;5097315;28;20032;-71
2021/08/11 12:28:46;;;;;;;7.55;3.72;;;23.30;99.90;;;;;;5097295;28;20475;-72
2021/08/11 12:31:16;;;;;;;5.10;3.30;;;23.30;99.90;;;;;;5097468;28;20107;-71
2021/08/11 12:33:45;;;;;;;7.45;4.00;;;23.10;99.90;;;;;;5096916;28;20040;-71
2021/08/11 12:36:20;;;;;;;4.78;3.28;;;23.10;99.90;;;;;;5096797;28;20036;-71
2021/08/11 12:39:14;;;;;;;6.20;3.50;;;23.10;99.90;;;;;;5096664;28;20044;-72
2021/08/11 12:41:44;;;;;;;;;;;23.30;99.90;;;;;;5097189;28;20107;-71
2021/08/11 12:44:20;;;;;;;9.60;3.83;;;23.20;99.90;;;;;;5096548;28;19934;-71
2021/08/11 12:46:49;;;;;;;6.70;3.25;;;23.20;99.90;;;;;;5096044;28;20085;-71
2021/08/11 12:49:25;;;;;;;7.38;3.45;;;23.30;99.90;;;;;;5095544;28;20059;-71